createdAt,value
2019-05-14T00:01:51.389Z,74.02
2019-05-14T00:04:57.082Z,73.31
2019-05-14T00:08:02.766Z,74.12
2019-05-14T00:11:08.518Z,73.48
2019-05-14T00:14:14.200Z,72.97
2019-05-14T00:17:22.761Z,73.15
2019-05-14T00:20:28.475Z,73.80
2019-05-14T00:23:34.150Z,74.52
2019-05-14T00:26:42.367Z,73.33
2019-05-14T00:29:47.514Z,73.67
2019-05-14T00:32:53.209Z,75.18
2019-05-14T00:35:58.892Z,74.38
2019-05-14T00:39:05.470Z,73.79
2019-05-14T00:42:12.593Z,73.43
2019-05-14T00:45:18.954Z,74.22
2019-05-14T00:48:24.681Z,74.06
2019-05-14T00:51:31.823Z,73.43
2019-05-14T00:54:37.557Z,75.02
2019-05-14T00:57:43.374Z,74.71
2019-05-14T01:00:49.092Z,74.18
2019-05-14T01:03:55.869Z,74.03
2019-05-14T01:07:01.761Z,73.75
2019-05-14T01:10:08.031Z,75.01
2019-05-14T01:13:14.092Z,73.57
2019-05-14T01:16:22.223Z,73.12
2019-05-14T01:19:27.348Z,74.66
2019-05-14T01:22:33.053Z,74.66
2019-05-14T01:25:38.836Z,74.04
2019-05-14T01:28:44.630Z,74.07
2019-05-14T01:31:52.042Z,74.41
2019-05-14T01:35:01.308Z,74.18
2019-05-14T01:38:06.356Z,74.63
2019-05-14T01:41:12.101Z,74.19
2019-05-14T01:44:17.837Z,75.20
2019-05-14T01:47:23.741Z,74.82
2019-05-14T01:50:29.495Z,75.58
2019-05-14T01:53:35.203Z,75.92
2019-05-14T01:56:42.396Z,76.06
2019-05-14T01:59:48.151Z,74.51
2019-05-14T02:02:53.898Z,75.14
2019-05-14T02:06:01.383Z,75.11
2019-05-14T02:09:07.872Z,74.93
2019-05-14T02:12:13.678Z,74.41
2019-05-14T02:15:21.408Z,73.79
2019-05-14T02:18:27.098Z,73.33
2019-05-14T02:21:32.893Z,72.32
2019-05-14T02:24:38.594Z,72.33
2019-05-14T02:27:44.359Z,72.87
2019-05-14T02:30:57.682Z,73.33
2019-05-14T02:33:59.200Z,73.41
2019-05-14T02:37:04.991Z,73.29
2019-05-14T02:40:10.997Z,74.45
2019-05-14T02:43:19.617Z,75.76
2019-05-14T02:46:24.119Z,74.94
2019-05-14T02:49:30.248Z,74.00
2019-05-14T02:52:36.127Z,73.98
2019-05-14T02:55:41.860Z,73.63
2019-05-14T02:58:49.886Z,73.58
2019-05-14T03:01:54.973Z,73.38
2019-05-14T03:05:00.866Z,74.51
2019-05-14T03:08:09.009Z,74.45
2019-05-14T03:11:14.674Z,74.07
2019-05-14T03:14:20.412Z,73.75
2019-05-14T03:17:26.196Z,72.79
2019-05-14T03:20:31.990Z,72.79
2019-05-14T03:23:39.271Z,75.65
2019-05-14T03:26:45.252Z,75.65
2019-05-14T03:29:51.191Z,75.55
2019-05-14T03:33:01.997Z,75.79
2019-05-14T03:36:09.195Z,75.05
2019-05-14T03:39:12.223Z,74.39
2019-05-14T03:42:19.229Z,75.09
2019-05-14T03:45:25.332Z,75.22
2019-05-14T03:48:31.247Z,73.95
2019-05-14T03:51:39.343Z,74.36
2019-05-14T03:54:44.711Z,74.12
2019-05-14T03:57:50.479Z,74.17
2019-05-14T04:01:02.770Z,73.60
2019-05-14T04:04:10.175Z,74.44
2019-05-14T04:07:19.548Z,74.25
2019-05-14T04:10:24.618Z,73.21
2019-05-14T04:13:32.294Z,73.03
2019-05-14T04:16:40.026Z,73.12
2019-05-14T04:19:51.374Z,73.60
2019-05-14T04:23:00.219Z,73.72
2019-05-14T04:26:09.368Z,73.16
2019-05-14T04:29:19.636Z,72.20
2019-05-14T04:32:24.107Z,72.40
2019-05-14T04:35:30.198Z,71.56
2019-05-14T04:38:35.935Z,71.10
2019-05-14T04:41:41.639Z,72.16
2019-05-14T04:44:50.205Z,71.43
2019-05-14T04:47:54.942Z,70.57
2019-05-14T04:51:00.827Z,70.58
2019-05-14T04:54:09.442Z,71.54
2019-05-14T04:57:13.948Z,71.07
2019-05-14T05:00:20.056Z,70.59
2019-05-14T05:03:25.776Z,69.95
2019-05-14T05:06:31.504Z,69.51
2019-05-14T05:09:39.818Z,68.64
2019-05-14T05:12:44.676Z,69.58
2019-05-14T05:15:50.404Z,69.63
2019-05-14T05:18:59.182Z,69.63
2019-05-14T05:22:03.540Z,69.28
2019-05-14T05:25:09.576Z,69.28
2019-05-14T05:28:15.307Z,69.92
2019-05-14T05:31:21.011Z,69.92
2019-05-14T05:34:28.300Z,70.10
2019-05-14T05:37:34.321Z,69.25
2019-05-14T05:40:40.020Z,69.51
2019-05-14T05:43:48.373Z,70.09
2019-05-14T05:46:55.729Z,70.09
2019-05-14T05:50:01.588Z,69.79
2019-05-14T05:53:09.056Z,71.07
2019-05-14T05:56:52.601Z,70.51
2019-05-14T06:01:19.670Z,70.99
2019-05-14T06:04:58.764Z,70.99
2019-05-14T06:08:15.355Z,71.05
2019-05-14T06:11:22.348Z,70.90
2019-05-14T06:14:29.165Z,71.47
2019-05-14T06:17:35.126Z,71.99
2019-05-14T06:20:42.891Z,72.06
2019-05-14T06:23:49.290Z,72.36
2019-05-14T06:26:55.129Z,73.12
2019-05-14T06:30:00.923Z,72.61
2019-05-14T06:33:09.775Z,72.80
2019-05-14T06:36:15.594Z,72.83
2019-05-14T06:39:21.439Z,72.83
2019-05-14T06:42:28.514Z,72.76
2019-05-14T06:45:34.358Z,74.45
2019-05-14T06:48:40.065Z,74.47
2019-05-14T06:51:48.710Z,74.47
2019-05-14T06:54:53.343Z,75.34
2019-05-14T06:57:59.174Z,75.23
2019-05-14T07:01:04.937Z,75.34
2019-05-14T07:04:10.632Z,74.29
2019-05-14T07:07:16.571Z,75.29
2019-05-14T07:10:22.335Z,74.04
2019-05-14T07:13:29.235Z,74.54
2019-05-14T07:16:35.266Z,72.67
2019-05-14T07:19:40.972Z,73.58
2019-05-14T07:22:48.385Z,73.58
2019-05-14T07:25:54.347Z,73.83
2019-05-14T07:29:00.182Z,73.56
2019-05-14T07:32:08.755Z,73.28
2019-05-14T07:35:13.426Z,74.58
2019-05-14T07:38:19.616Z,74.95
2019-05-14T07:41:28.287Z,73.86
2019-05-14T07:44:32.945Z,76.13
2019-05-14T07:47:39.037Z,76.13
2019-05-14T07:50:48.258Z,76.08
2019-05-14T07:53:52.572Z,74.71
2019-05-14T07:56:59.092Z,74.71
2019-05-14T08:00:05.598Z,74.51
2019-05-14T08:03:11.354Z,74.76
2019-05-14T08:06:18.898Z,76.88
2019-05-14T08:09:25.277Z,75.20
2019-05-14T08:12:31.011Z,76.08
2019-05-14T08:15:38.707Z,76.92
2019-05-14T08:18:44.319Z,77.79
2019-05-14T08:21:53.234Z,76.46
2019-05-14T08:24:59.111Z,76.90
2019-05-14T08:28:04.887Z,75.71
2019-05-14T08:31:10.685Z,75.71
2019-05-14T08:34:19.006Z,74.41
2019-05-14T08:37:23.974Z,75.50
2019-05-14T08:40:35.159Z,74.83
2019-05-14T08:43:41.072Z,75.42
2019-05-14T08:46:48.664Z,75.57
2019-05-14T08:49:54.181Z,76.42
2019-05-14T08:52:59.912Z,77.03
2019-05-14T08:56:08.143Z,77.65
2019-05-14T08:59:13.198Z,77.29
2019-05-14T09:02:19.734Z,76.50
2019-05-14T09:05:25.539Z,75.57
2019-05-14T09:08:31.324Z,74.53
2019-05-14T09:11:45.144Z,76.26
2019-05-14T09:14:48.321Z,76.26
2019-05-14T09:17:54.332Z,75.36
2019-05-14T09:21:00.057Z,74.69
2019-05-14T09:24:09.394Z,75.14
2019-05-14T09:27:14.496Z,74.82
2019-05-14T09:30:20.472Z,75.01
2019-05-14T09:33:26.258Z,74.82
2019-05-14T09:36:31.932Z,74.62
2019-05-14T09:39:38.555Z,75.05
2019-05-14T09:42:44.609Z,74.59
2019-05-14T09:45:50.318Z,73.32
2019-05-14T09:48:56.027Z,71.69
2019-05-14T09:52:01.796Z,71.69
2019-05-14T09:55:09.383Z,70.17
2019-05-14T09:58:15.426Z,70.51
2019-05-14T10:01:21.322Z,70.86
2019-05-14T10:04:27.166Z,71.62
2019-05-14T10:07:32.891Z,70.41
2019-05-14T10:10:39.910Z,69.57
2019-05-14T10:13:48.186Z,67.70
2019-05-14T10:16:53.374Z,68.51
2019-05-14T10:19:59.625Z,67.74
2019-05-14T10:23:05.824Z,66.19
2019-05-14T10:26:11.502Z,66.55
2019-05-14T10:29:19.144Z,64.28
2019-05-14T10:32:24.714Z,62.98
2019-05-14T10:35:30.412Z,63.35
2019-05-14T10:38:38.553Z,63.51
2019-05-14T10:41:44.592Z,62.18
2019-05-14T10:44:50.674Z,62.97
2019-05-14T10:47:58.609Z,62.35
2019-05-14T10:51:05.367Z,59.89
2019-05-14T10:54:22.503Z,58.95
2019-05-14T10:57:18.753Z,58.44
2019-05-14T11:00:24.968Z,60.08
2019-05-14T11:03:32.309Z,60.72
2019-05-14T11:06:38.792Z,58.64
2019-05-14T11:09:44.666Z,59.15
2019-05-14T11:12:54.829Z,59.34
2019-05-14T11:15:59.953Z,59.21
2019-05-14T11:19:09.038Z,57.52
2019-05-14T11:22:14.966Z,58.48
2019-05-14T11:25:20.943Z,57.43
2019-05-14T11:28:28.562Z,59.17
2019-05-14T11:31:34.450Z,60.02
2019-05-14T11:34:40.372Z,60.45
2019-05-14T11:37:48.149Z,60.30
2019-05-14T11:40:54.164Z,60.01
2019-05-14T11:43:59.982Z,60.41
2019-05-14T11:47:05.755Z,61.37
2019-05-14T11:50:12.036Z,61.80
2019-05-14T11:53:20.115Z,61.97
2019-05-14T11:56:25.175Z,63.58
2019-05-14T11:59:31.667Z,63.76
2019-05-14T12:02:44.121Z,64.03
2019-05-14T12:05:52.922Z,63.43
2019-05-14T12:08:58.732Z,64.06
2019-05-14T12:12:04.776Z,64.48
2019-05-14T12:15:10.903Z,63.97
2019-05-14T12:18:18.550Z,62.71
2019-05-14T12:21:24.998Z,62.77
2019-05-14T12:24:30.844Z,62.12
2019-05-14T12:27:38.751Z,62.62
2019-05-14T12:30:45.126Z,62.66
2019-05-14T12:33:50.919Z,62.64
2019-05-14T12:36:58.212Z,62.34
2019-05-14T12:40:04.382Z,62.81
2019-05-14T12:43:10.104Z,62.92
2019-05-14T12:46:15.981Z,62.77
2019-05-14T12:49:21.733Z,63.62
2019-05-14T12:52:29.637Z,63.24
2019-05-14T12:55:34.910Z,63.49
2019-05-14T12:58:45.438Z,63.54
2019-05-14T13:01:49.284Z,63.55
2019-05-14T13:04:55.173Z,63.73
2019-05-14T13:08:00.900Z,63.98
2019-05-14T13:11:09.322Z,63.37
2019-05-14T13:14:14.224Z,62.81
2019-05-14T13:17:19.962Z,63.07
2019-05-14T13:20:29.101Z,63.14
2019-05-14T13:23:35.079Z,62.53
2019-05-14T13:26:40.755Z,62.42
2019-05-14T13:56:04.093Z,61.51
2019-05-14T13:59:10.006Z,61.95
2019-05-14T14:02:18.688Z,62.11
2019-05-14T14:05:23.266Z,61.94
2019-05-14T14:08:29.388Z,61.86
2019-05-14T14:11:35.442Z,62.99
2019-05-14T14:14:41.523Z,62.19
2019-05-14T14:17:49.415Z,61.82
2019-05-14T14:20:54.675Z,62.54
2019-05-14T14:24:00.359Z,62.28
2019-05-14T14:27:08.925Z,61.82
2019-05-14T14:30:14.723Z,61.06
2019-05-14T14:33:20.541Z,60.87
2019-05-14T14:36:29.857Z,61.60
2019-05-14T14:39:33.781Z,60.69
2019-05-14T14:42:40.453Z,60.48
2019-05-14T14:45:50.570Z,60.68
2019-05-14T14:48:57.832Z,61.25
2019-05-14T14:52:01.520Z,61.45
2019-05-14T14:55:08.037Z,61.63
2019-05-14T14:58:15.815Z,62.00
2019-05-14T15:01:21.282Z,62.12
2019-05-14T15:04:27.996Z,62.07
2019-05-14T15:07:33.773Z,62.15
2019-05-14T15:10:39.717Z,62.44
2019-05-14T15:13:45.509Z,62.33
2019-05-14T15:16:51.222Z,62.65
2019-05-14T15:19:59.545Z,63.03
2019-05-14T15:23:04.580Z,62.82
2019-05-14T15:26:12.291Z,63.01
2019-05-14T15:29:18.731Z,63.22
2019-05-14T15:32:24.719Z,63.50
2019-05-14T15:35:30.530Z,63.57
2019-05-14T15:38:39.707Z,64.91
2019-05-14T15:41:49.884Z,64.25
2019-05-14T15:44:56.991Z,65.05
2019-05-14T15:48:04.268Z,65.22
2019-05-14T15:51:14.267Z,65.19
2019-05-14T15:54:36.121Z,65.30
2019-05-14T15:57:29.518Z,66.39
2019-05-14T16:00:38.496Z,65.89
2019-05-14T16:03:44.530Z,66.16
2019-05-14T16:06:55.138Z,66.30
2019-05-14T16:10:01.057Z,66.18
2019-05-14T16:13:08.750Z,67.05
2019-05-14T16:16:14.857Z,67.10
2019-05-14T16:19:21.885Z,66.97
2019-05-14T16:22:29.378Z,67.54
2019-05-14T16:25:35.392Z,67.31
2019-05-14T16:28:42.456Z,67.41
2019-05-14T16:31:48.787Z,67.14
2019-05-14T16:34:54.779Z,67.71
2019-05-14T16:38:01.763Z,68.48
2019-05-14T16:41:07.720Z,68.61
2019-05-14T16:44:13.424Z,68.67
2019-05-14T16:47:19.246Z,69.33
2019-05-14T16:50:25.033Z,69.78
2019-05-14T16:53:30.785Z,68.86
2019-05-14T16:56:41.125Z,69.05
2019-05-14T16:59:44.552Z,69.18
2019-05-14T17:02:50.253Z,69.61
2019-05-14T17:05:58.055Z,69.66
2019-05-14T17:09:03.886Z,70.03
2019-05-14T17:12:09.966Z,69.92
2019-05-14T17:15:18.044Z,70.60
2019-05-14T17:18:23.344Z,70.57
2019-05-14T17:21:29.847Z,70.27
2019-05-14T17:24:35.739Z,70.88
2019-05-14T17:27:42.981Z,71.05
2019-05-14T17:30:49.236Z,71.49
2019-05-14T17:33:55.040Z,71.41
2019-05-14T17:37:01.401Z,71.41
2019-05-14T17:40:09.419Z,71.41
2019-05-14T17:43:14.988Z,71.70
2019-05-14T17:46:20.930Z,71.70
2019-05-14T17:49:28.339Z,71.35
2019-05-14T17:52:34.238Z,71.40
2019-05-14T17:55:47.106Z,71.39
2019-05-14T17:58:49.162Z,71.46
2019-05-14T18:01:54.867Z,71.71
2019-05-14T18:05:00.596Z,71.98
2019-05-14T18:08:09.302Z,71.28
2019-05-14T18:11:15.126Z,71.58
2019-05-14T18:14:20.782Z,71.45
2019-05-14T18:17:29.447Z,71.89
2019-05-14T18:20:33.992Z,71.98
2019-05-14T18:23:42.047Z,72.17
2019-05-14T18:26:48.124Z,71.74
2019-05-14T18:29:53.891Z,71.67
2019-05-14T18:32:59.814Z,71.26
2019-05-14T18:36:07.940Z,72.26
2019-05-14T18:39:13.648Z,72.25
2019-05-14T18:42:19.539Z,72.58
2019-05-14T18:45:25.363Z,72.59
2019-05-14T18:48:31.235Z,72.13
2019-05-14T18:51:36.952Z,72.11
2019-05-14T18:54:42.720Z,71.69
2019-05-14T18:57:48.748Z,72.22
2019-05-14T19:00:54.688Z,72.46
2019-05-14T19:04:00.451Z,72.73
2019-05-14T19:07:06.252Z,72.63
2019-05-14T19:10:12.253Z,72.18
2019-05-14T19:13:18.740Z,72.90
2019-05-14T19:16:24.779Z,72.36
2019-05-14T19:19:30.535Z,73.14
2019-05-14T19:22:39.465Z,72.82
2019-05-14T19:25:43.689Z,73.00
2019-05-14T19:28:49.415Z,72.87
2019-05-14T19:31:55.202Z,72.59
2019-05-14T19:35:00.918Z,72.56
2019-05-14T19:38:08.877Z,72.46
2019-05-14T19:41:21.029Z,72.48
2019-05-14T19:44:24.784Z,72.09
2019-05-14T19:47:30.563Z,72.37
2019-05-14T19:50:48.878Z,73.23
2019-05-14T19:53:55.307Z,72.94
2019-05-14T19:57:06.161Z,73.12
2019-05-14T20:00:12.537Z,73.25
2019-05-14T20:03:18.723Z,73.33
2019-05-14T20:06:33.920Z,73.42
2019-05-14T20:09:39.923Z,73.08
2019-05-14T20:12:49.611Z,73.57
2019-05-14T20:15:58.919Z,73.17
2019-05-14T20:19:04.315Z,73.87
2019-05-14T20:22:10.066Z,73.12
2019-05-14T20:25:16.238Z,72.85
2019-05-14T20:28:22.227Z,72.40
2019-05-14T20:31:29.663Z,72.04
2019-05-14T20:34:35.564Z,73.32
2019-05-14T20:37:41.277Z,73.91
2019-05-14T20:40:48.748Z,74.29
2019-05-14T20:43:56.086Z,74.13
2019-05-14T20:47:04.457Z,73.98
2019-05-14T20:50:13.867Z,73.98
2019-05-14T20:53:19.595Z,73.35
2019-05-14T20:56:25.282Z,73.27
2019-05-14T20:59:31.000Z,73.04
2019-05-14T21:02:39.431Z,73.45
2019-05-14T21:05:44.304Z,73.15
2019-05-14T21:08:50.092Z,73.15
2019-05-14T21:11:55.840Z,73.35
2019-05-14T21:15:01.550Z,75.35
2019-05-14T21:18:08.376Z,74.55
2019-05-14T21:21:14.331Z,74.88
2019-05-14T21:24:21.780Z,74.46
2019-05-14T21:27:41.174Z,74.71
2019-05-14T21:30:35.441Z,74.93
2019-05-14T21:33:41.490Z,74.97
2019-05-14T21:36:49.641Z,75.85
2019-05-14T21:39:55.325Z,75.97
2019-05-14T21:43:01.185Z,76.91
2019-05-14T21:46:08.149Z,76.28
2019-05-14T21:49:15.037Z,76.94
2019-05-14T21:52:20.782Z,76.71
2019-05-14T21:55:28.925Z,75.59
2019-05-14T21:58:38.694Z,75.16
2019-05-14T22:01:45.455Z,75.87
2019-05-14T22:04:51.280Z,76.38
2019-05-14T22:07:57.983Z,76.50
2019-05-14T22:11:04.916Z,76.03
2019-05-14T22:14:10.608Z,75.64
2019-05-14T22:17:16.319Z,75.85
2019-05-14T22:20:22.117Z,75.81
2019-05-14T22:23:29.176Z,76.14
2019-05-14T22:26:35.168Z,77.28
2019-05-14T22:29:41.233Z,75.76
2019-05-14T22:32:49.668Z,75.94
2019-05-14T22:36:00.957Z,75.23
2019-05-14T22:39:19.787Z,75.31
2019-05-14T22:43:25.322Z,74.34
2019-05-14T22:46:24.738Z,74.15
2019-05-14T22:49:30.662Z,74.85
2019-05-14T22:52:38.589Z,76.35
2019-05-14T22:55:43.809Z,74.59
2019-05-14T22:58:49.513Z,74.15
2019-05-14T23:01:55.226Z,74.68
2019-05-14T23:05:01.070Z,74.88
2019-05-14T23:08:08.972Z,74.69
2019-05-14T23:11:14.906Z,74.97
2019-05-14T23:14:20.630Z,75.05
2019-05-14T23:17:28.031Z,74.43
2019-05-14T23:20:34.822Z,75.10
2019-05-14T23:28:24.297Z,73.84
2019-05-14T23:31:29.996Z,73.99
2019-05-14T23:34:37.860Z,73.98
2019-05-14T23:37:43.817Z,73.68
2019-05-14T23:40:49.567Z,73.76
2019-05-14T23:43:55.309Z,73.35
2019-05-14T23:47:01.007Z,73.40
2019-05-14T23:50:08.170Z,73.70
2019-05-14T23:53:14.100Z,74.51
2019-05-14T23:56:19.873Z,74.23
2019-05-14T23:59:25.895Z,75.14
